createdAt,value
2019-03-02T00:04:26.114Z,79.74
2019-03-02T00:06:51.897Z,79.75
2019-03-02T00:09:17.696Z,79.82
2019-03-02T00:11:43.473Z,79.63
2019-03-02T00:14:09.271Z,79.63
2019-03-02T00:16:35.051Z,79.32
2019-03-02T00:19:02.916Z,79.69
2019-03-02T00:21:31.369Z,79.67
2019-03-02T00:23:56.243Z,79.75
2019-03-02T00:26:22.029Z,79.87
2019-03-02T00:28:47.817Z,79.92
2019-03-02T00:31:13.592Z,79.77
2019-03-02T00:33:39.391Z,79.78
2019-03-02T00:36:05.166Z,79.45
2019-03-02T00:38:30.968Z,79.40
2019-03-02T00:40:56.751Z,79.48
2019-03-02T00:43:23.689Z,79.26
2019-03-02T00:45:50.263Z,79.20
2019-03-02T00:48:16.039Z,79.13
2019-03-02T00:50:41.815Z,79.12
2019-03-02T00:53:07.620Z,78.87
2019-03-02T00:55:33.392Z,78.88
2019-03-02T00:57:59.185Z,78.69
2019-03-02T01:00:24.979Z,78.62
2019-03-02T01:02:50.756Z,78.43
2019-03-02T01:05:16.539Z,78.33
2019-03-02T01:07:42.315Z,78.29
2019-03-02T01:10:49.790Z,78.26
2019-03-02T01:13:16.832Z,78.10
2019-03-02T01:15:44.012Z,78.42
2019-03-02T01:18:10.982Z,78.40
2019-03-02T01:20:36.779Z,78.33
2019-03-02T01:23:02.553Z,78.48
2019-03-02T01:25:28.357Z,78.44
2019-03-02T01:27:54.132Z,78.40
2019-03-02T01:30:19.923Z,78.82
2019-03-02T01:32:48.999Z,79.09
2019-03-02T01:35:16.397Z,79.32
2019-03-02T01:37:43.945Z,79.64
2019-03-02T01:40:50.555Z,79.66
2019-03-02T01:43:16.334Z,79.94
2019-03-02T01:45:42.151Z,80.16
2019-03-02T01:48:07.935Z,80.15
2019-03-02T01:50:33.717Z,80.16
2019-03-02T01:52:59.498Z,78.92
2019-03-02T01:55:27.827Z,76.80
2019-03-02T01:57:53.230Z,76.09
2019-03-02T02:00:40.693Z,75.73
2019-03-02T02:03:08.506Z,75.52
2019-03-02T02:08:08.539Z,75.40
2019-03-02T02:10:34.343Z,76.00
2019-03-02T02:13:02.786Z,76.76
2019-03-02T02:15:29.316Z,77.37
2019-03-02T02:17:55.693Z,77.62
2019-03-02T02:20:21.578Z,77.82
2019-03-02T02:22:47.366Z,78.08
2019-03-02T02:25:35.727Z,78.04
2019-03-02T02:28:00.703Z,78.29
2019-03-02T02:31:08.182Z,78.64
2019-03-02T02:33:42.609Z,78.56
2019-03-02T02:36:01.670Z,79.11
2019-03-02T02:38:27.465Z,79.22
2019-03-02T02:40:53.248Z,79.41
2019-03-02T02:43:21.216Z,79.78
2019-03-02T02:45:49.063Z,79.57
2019-03-02T02:48:14.421Z,79.86
2019-03-02T02:50:42.883Z,79.85
2019-03-02T02:53:08.373Z,79.91
2019-03-02T02:55:36.083Z,79.26
2019-03-02T02:58:03.285Z,79.11
2019-03-02T03:00:29.106Z,79.20
2019-03-02T03:02:54.881Z,79.68
2019-03-02T03:05:20.752Z,80.13
2019-03-02T03:08:32.222Z,80.25
2019-03-02T03:10:55.933Z,80.17
2019-03-02T03:13:21.710Z,80.49
2019-03-02T03:18:25.735Z,80.36
2019-03-02T03:20:51.527Z,80.42
2019-03-02T03:23:19.949Z,80.35
2019-03-02T03:25:45.045Z,80.46
2019-03-02T03:28:32.553Z,80.47
2019-03-02T03:30:58.484Z,80.47
2019-03-02T03:33:24.263Z,80.38
2019-03-02T03:35:51.695Z,80.25
2019-03-02T03:38:17.736Z,80.00
2019-03-02T03:40:43.510Z,80.15
2019-03-02T03:43:09.304Z,80.06
2019-03-02T03:45:42.457Z,79.90
2019-03-02T03:48:02.778Z,79.69
2019-03-02T03:50:28.557Z,79.77
2019-03-02T03:52:54.363Z,79.74
2019-03-02T03:55:25.077Z,79.43
2019-03-02T03:57:47.845Z,79.31
2019-03-02T04:03:40.742Z,79.14
2019-03-02T04:06:06.483Z,78.56
2019-03-02T04:08:32.275Z,78.47
2019-03-02T04:11:00.409Z,78.38
2019-03-02T04:13:25.763Z,78.60
2019-03-02T04:15:51.541Z,78.82
2019-03-02T04:18:39.123Z,78.85
2019-03-02T04:21:04.899Z,78.77
2019-03-02T04:23:30.799Z,78.55
2019-03-02T04:26:00.187Z,78.28
2019-03-02T04:28:27.674Z,78.44
2019-03-02T04:34:00.851Z,77.93
2019-03-02T04:36:26.635Z,77.87
2019-03-02T04:38:52.438Z,77.63
2019-03-02T04:41:18.213Z,77.38
2019-03-02T04:43:43.996Z,77.38
2019-03-02T04:46:11.764Z,77.37
2019-03-02T04:48:39.268Z,77.68
2019-03-02T04:51:05.139Z,77.51
2019-03-02T04:53:30.923Z,77.46
2019-03-02T04:55:56.703Z,77.37
2019-03-02T04:58:22.505Z,77.32
2019-03-02T05:00:48.309Z,77.29
2019-03-02T05:03:14.495Z,77.28
2019-03-02T05:05:40.610Z,77.19
2019-03-02T05:08:07.944Z,77.35
2019-03-02T05:10:33.746Z,77.27
2019-03-02T05:12:59.517Z,77.37
2019-03-02T05:15:25.306Z,77.40
2019-03-02T05:17:51.073Z,77.56
2019-03-02T05:20:16.872Z,77.44
2019-03-02T05:22:42.649Z,77.69
2019-03-02T05:25:51.585Z,77.69
2019-03-02T05:28:17.780Z,77.73
2019-03-02T05:30:43.570Z,77.74
2019-03-02T05:33:09.341Z,78.00
2019-03-02T05:35:35.133Z,77.77
2019-03-02T05:38:00.927Z,77.68
2019-03-02T05:40:27.765Z,77.82
2019-03-02T05:42:54.414Z,77.97
2019-03-02T05:45:20.345Z,78.09
2019-03-02T05:47:47.902Z,78.27
2019-03-02T05:53:30.232Z,78.74
2019-03-02T05:55:55.035Z,78.75
2019-03-02T05:58:40.691Z,78.79
2019-03-02T06:01:06.566Z,78.79
2019-03-02T06:03:32.355Z,78.96
2019-03-02T06:05:58.156Z,79.21
2019-03-02T06:08:23.932Z,79.19
2019-03-02T06:10:49.728Z,79.18
2019-03-02T06:13:15.500Z,79.29
2019-03-02T06:15:42.933Z,79.19
2019-03-02T06:18:08.970Z,78.91
2019-03-02T06:20:35.663Z,78.76
2019-03-02T06:23:02.440Z,78.60
2019-03-02T06:25:28.221Z,78.25
2019-03-02T06:27:54.005Z,77.99
2019-03-02T06:36:46.315Z,76.69
2019-03-02T06:39:12.087Z,76.28
2019-03-02T06:41:37.885Z,76.29
2019-03-02T06:44:03.656Z,76.22
2019-03-02T06:46:29.447Z,76.41
2019-03-02T06:48:55.213Z,76.38
2019-03-02T06:51:21.006Z,76.26
2019-03-02T06:53:46.781Z,76.18
2019-03-02T06:56:12.551Z,76.06
2019-03-02T06:58:38.332Z,76.02
2019-03-02T07:01:24.845Z,75.43
2019-03-02T07:03:51.694Z,75.43
2019-03-02T07:06:17.464Z,75.05
2019-03-02T07:08:43.253Z,74.97
2019-03-02T07:11:09.032Z,74.87
2019-03-02T07:13:34.826Z,75.15
2019-03-02T07:16:00.596Z,74.73
2019-03-02T07:18:46.271Z,74.96
2019-03-02T07:21:12.046Z,75.45
2019-03-02T07:23:37.851Z,75.89
2019-03-02T07:26:03.628Z,76.44
2019-03-02T07:28:29.425Z,76.50
2019-03-02T07:30:55.204Z,76.76
2019-03-02T07:33:21.002Z,76.97
2019-03-02T07:35:46.772Z,77.16
2019-03-02T07:38:12.562Z,77.09
2019-03-02T07:40:41.226Z,77.01
2019-03-02T07:43:09.606Z,77.20
2019-03-02T07:45:34.859Z,77.22
2019-03-02T07:48:01.556Z,76.89
2019-03-02T07:50:47.384Z,77.04
2019-03-02T07:53:13.191Z,77.04
2019-03-02T07:55:38.957Z,77.10
2019-03-02T07:58:04.768Z,77.23
2019-03-02T08:02:56.375Z,77.13
2019-03-02T08:05:22.214Z,77.31
2019-03-02T08:07:47.981Z,77.20
2019-03-02T08:10:13.768Z,77.20
2019-03-02T08:12:39.569Z,76.89
2019-03-02T08:18:21.701Z,77.41
2019-03-02T08:20:47.137Z,78.58
2019-03-02T08:23:12.916Z,78.85
2019-03-02T08:25:38.715Z,79.34
2019-03-02T08:28:06.734Z,78.72
2019-03-02T08:30:33.413Z,78.86
2019-03-02T08:32:59.857Z,79.51
2019-03-02T08:35:25.642Z,79.94
2019-03-02T08:37:51.411Z,79.87
2019-03-02T08:43:13.001Z,79.07
2019-03-02T08:45:38.826Z,78.76
2019-03-02T08:48:04.892Z,78.76
2019-03-02T08:50:32.340Z,78.15
2019-03-02T08:52:58.148Z,77.59
2019-03-02T08:55:23.931Z,77.65
2019-03-02T08:57:49.866Z,77.78
2019-03-02T09:00:57.361Z,78.19
2019-03-02T09:03:23.127Z,78.45
2019-03-02T09:05:51.826Z,77.99
2019-03-02T09:08:16.625Z,77.98
2019-03-02T09:10:45.912Z,77.53
2019-03-02T09:13:10.103Z,77.39
2019-03-02T09:15:35.902Z,76.92
2019-03-02T09:18:01.681Z,76.80
2019-03-02T09:20:27.464Z,76.29
2019-03-02T09:22:56.305Z,75.58
2019-03-02T09:25:24.004Z,75.44
2019-03-02T09:28:09.035Z,75.09
2019-03-02T09:30:34.834Z,75.09
2019-03-02T09:33:00.619Z,75.36
2019-03-02T09:35:26.439Z,75.98
2019-03-02T09:37:52.207Z,75.06
2019-03-02T09:40:37.893Z,75.38
2019-03-02T09:43:03.673Z,75.30
2019-03-02T09:45:29.455Z,75.93
2019-03-02T09:47:55.248Z,76.54
2019-03-02T09:51:02.712Z,77.01
2019-03-02T09:53:28.487Z,77.89
2019-03-02T09:55:56.411Z,77.68
2019-03-02T09:58:24.284Z,77.87
2019-03-02T10:00:49.656Z,77.62
2019-03-02T10:03:15.430Z,77.28
2019-03-02T10:05:41.206Z,77.56
2019-03-02T10:08:09.843Z,77.50
2019-03-02T10:10:34.699Z,78.00
2019-03-02T10:13:00.505Z,78.13
2019-03-02T10:15:46.165Z,77.19
2019-03-02T10:18:13.875Z,77.10
2019-03-02T10:20:42.570Z,76.93
2019-03-02T10:23:07.330Z,76.82
2019-03-02T10:25:33.116Z,77.18
2019-03-02T10:27:58.908Z,77.23
2019-03-02T10:30:25.961Z,77.87
2019-03-02T10:32:55.580Z,77.08
2019-03-02T10:35:20.150Z,76.72
2019-03-02T10:37:46.048Z,76.46
2019-03-02T10:40:31.702Z,75.98
2019-03-02T10:42:57.499Z,76.23
2019-03-02T10:45:23.288Z,76.77
2019-03-02T10:47:49.090Z,77.33
2019-03-02T10:50:59.508Z,77.68
2019-03-02T10:53:25.155Z,76.85
2019-03-02T10:55:51.936Z,75.83
2019-03-02T10:58:17.722Z,76.46
2019-03-02T11:00:43.497Z,75.90
2019-03-02T11:03:50.967Z,75.99
2019-03-02T11:09:45.726Z,74.99
2019-03-02T11:12:31.404Z,74.47
2019-03-02T11:15:17.083Z,74.43
2019-03-02T11:18:02.767Z,74.61
2019-03-02T11:20:48.439Z,74.71
2019-03-02T11:26:07.878Z,74.93
2019-03-02T11:34:01.221Z,76.52
2019-03-02T11:36:49.425Z,76.50
2019-03-02T11:39:34.457Z,76.36
2019-03-02T11:45:07.436Z,76.61
2019-03-02T11:47:53.096Z,76.35
2019-03-02T11:50:38.777Z,75.17
2019-03-02T11:53:24.438Z,74.76
2019-03-02T11:56:10.116Z,74.52
2019-03-02T12:01:43.087Z,73.46
2019-03-02T12:07:16.061Z,72.37
2019-03-02T12:12:56.531Z,72.58
2019-03-02T12:29:13.413Z,70.82
2019-03-02T12:32:19.817Z,70.65
2019-03-02T12:35:05.493Z,70.65
2019-03-02T12:38:12.881Z,70.13
2019-03-02T12:41:18.531Z,69.63
2019-03-02T12:44:04.193Z,69.63
2019-03-02T12:46:52.190Z,69.39
2019-03-02T12:55:23.701Z,69.25
2019-03-02T12:58:29.268Z,68.15
2019-03-02T13:09:54.443Z,63.81
2019-03-02T13:12:53.958Z,64.70
2019-03-02T13:15:38.088Z,64.00
2019-03-02T13:20:57.383Z,64.74
2019-03-02T13:23:43.540Z,64.86
2019-03-02T13:26:51.033Z,65.04
2019-03-02T13:34:57.930Z,64.78
2019-03-02T13:40:17.552Z,65.32
2019-03-02T13:48:17.640Z,65.08
2019-03-02T13:51:02.997Z,64.68
2019-03-02T13:57:20.276Z,64.10
2019-03-02T14:00:27.730Z,64.51
2019-03-02T14:03:33.316Z,64.24
2019-03-02T14:06:19.729Z,64.24
2019-03-02T14:11:39.802Z,63.24
2019-03-02T14:14:26.547Z,62.30
2019-03-02T14:17:12.796Z,62.92
2019-03-02T14:19:58.580Z,62.44
2019-03-02T14:28:12.393Z,62.48
2019-03-02T14:31:00.880Z,62.27
2019-03-02T14:36:39.257Z,62.41
2019-03-02T14:42:58.336Z,62.61
2019-03-02T14:48:17.879Z,62.41
2019-03-02T14:51:03.581Z,62.16
2019-03-02T14:57:03.295Z,62.61
2019-03-02T15:03:02.283Z,62.39
2019-03-02T15:05:47.962Z,63.09
2019-03-02T15:11:20.967Z,63.38
2019-03-02T15:14:05.360Z,63.65
2019-03-02T15:16:49.977Z,63.21
2019-03-02T15:19:35.685Z,63.21
2019-03-02T15:25:30.696Z,63.49
2019-03-02T15:28:38.567Z,64.04
2019-03-02T15:31:24.324Z,63.49
2019-03-02T15:34:29.903Z,64.42
2019-03-02T15:40:24.850Z,64.40
2019-03-02T15:46:17.776Z,64.60
2019-03-02T15:49:23.445Z,65.15
2019-03-02T15:54:47.391Z,65.60
2019-03-02T15:57:39.621Z,65.46
2019-03-02T16:00:40.545Z,66.00
2019-03-02T16:03:26.230Z,66.00
2019-03-02T16:06:11.917Z,66.03
2019-03-02T16:08:57.602Z,66.07
2019-03-02T16:11:43.300Z,66.07
2019-03-02T16:14:29.067Z,66.62
2019-03-02T16:17:14.759Z,66.30
2019-03-02T16:20:02.448Z,66.37
2019-03-02T16:22:48.014Z,66.68
2019-03-02T16:28:20.990Z,67.02
2019-03-02T16:31:26.585Z,67.27
2019-03-02T16:34:12.546Z,67.27
2019-03-02T16:36:58.304Z,67.04
2019-03-02T16:39:44.226Z,67.07
2019-03-02T16:42:29.965Z,67.43
2019-03-02T16:45:15.632Z,67.46
2019-03-02T16:50:34.625Z,67.87
2019-03-02T16:55:53.764Z,68.15
2019-03-02T17:01:20.864Z,68.39
2019-03-02T17:04:05.169Z,68.62
2019-03-02T17:06:54.666Z,68.88
2019-03-02T17:12:27.661Z,69.15
2019-03-02T17:15:13.317Z,69.39
2019-03-02T17:17:59.020Z,69.38
2019-03-02T17:26:10.518Z,70.00
2019-03-02T17:28:56.257Z,70.07
2019-03-02T17:31:42.882Z,70.11
